Terminal Aerodrome Forecast
Issued by NWS

Home | Current Version | Previous Version | Text Only | Print | Product List | Glossary On
Versions: 1 2 3 4 5 6 7 8 9 10 11 12 13
000
FTUS44 KTSA 290500
TAFBVO
TAF
KBVO 290520Z 2906/3006 19010KT P6SM BKN250 WS012/19055KT
     FM291600 20012G20KT P6SM FEW250
     FM292300 19010KT P6SM SCT250=

USA.gov is the U.S. government's official web portal to all federal, state and local government web resources and services.